Time;durP1;ratioP1;P1;durP2;ratioP2;P2;SDS_P1;SDS_P2;PMS_P1;PMS_P2;Temp;Humidity;BMP_temperature;BMP_pressure;BME280_temperature;BME280_humidity;BME280_pressure;Samples;Min_cycle;Max_cycle;Signal;HPM_P1;HPM_P2
2022/05/20 00:02:12;;;;;;;;;3.25;2.25;;;;;22.07;47.41;101405.91;5126413;27;45271;-83
2022/05/20 00:04:38;;;;;;;;;2.00;2.00;;;;;22.18;47.30;101418.41;5113724;27;45217;-83
2022/05/20 00:07:04;;;;;;;;;2.00;1.25;;;;;22.30;47.06;101434.41;5131758;27;45449;-81
2022/05/20 00:09:29;;;;;;;;;2.00;2.00;;;;;22.08;47.05;101399.63;5115113;27;45237;-84
2022/05/20 00:11:54;;;;;;;;;3.25;3.00;;;;;22.18;47.25;101405.00;5111332;27;44973;-83
2022/05/20 00:14:20;;;;;;;;;1.25;1.25;;;;;22.27;47.46;101421.06;5115004;27;45033;-82
2022/05/20 00:16:46;;;;;;;;;3.00;2.00;;;;;22.06;47.18;101381.78;5129744;27;46216;-82
2022/05/20 00:19:12;;;;;;;;;1.75;1.00;;;;;22.15;46.94;101397.84;5127276;27;45123;-82
2022/05/20 00:21:37;;;;;;;;;1.25;1.00;;;;;22.07;47.07;101387.16;5111965;27;44905;-81
2022/05/20 00:24:04;;;;;;;;;1.75;1.25;;;;;21.94;47.29;101363.97;5120322;27;45125;-82
2022/05/20 00:26:29;;;;;;;;;2.00;2.00;;;;;21.87;47.01;101357.75;5111910;27;46675;-83
2022/05/20 00:28:55;;;;;;;;;2.00;2.00;;;;;22.23;47.28;101416.59;5130371;27;45060;-83
2022/05/20 00:31:23;;;;;;;;;1.50;1.50;;;;;22.10;47.54;101397.84;5113799;27;45039;-82
2022/05/20 00:33:48;;;;;;;;;3.50;2.75;;;;;21.99;47.17;101378.25;5124785;27;45260;-83
2022/05/20 00:36:14;;;;;;;;;2.00;2.00;;;;;22.14;47.49;101409.47;5104825;27;47303;-83
2022/05/20 00:38:39;;;;;;;;;2.50;2.50;;;;;21.97;47.73;101373.78;5113012;27;45389;-82
2022/05/20 00:41:09;;;;;;;;;1.75;1.75;;;;;21.93;47.42;101367.56;5111868;27;44986;-82
2022/05/20 00:43:39;;;;;;;;;1.25;1.25;;;;;22.08;47.61;101407.66;5125983;27;45386;-83
2022/05/20 00:46:08;;;;;;;;;3.00;2.00;;;;;21.85;47.65;101386.28;5111012;27;45474;-84
2022/05/20 00:48:36;;;;;;;;;3.00;2.00;;;;;21.93;47.65;101390.75;5120394;27;45515;-82
2022/05/20 00:51:14;;;;;;;;;1.50;1.50;;;;;21.98;47.78;101403.22;5125296;27;45199;-80
2022/05/20 00:54:12;;;;;;;;;3.00;2.75;;;;;22.00;47.82;101408.56;5122465;27;45449;-80
2022/05/20 00:56:47;;;;;;;;;1.50;1.50;;;;;21.18;47.90;101268.66;5126367;27;46082;-81
2022/05/20 00:59:24;;;;;;;;;2.00;2.00;;;;;21.25;47.63;101293.59;5112957;27;45795;-80
2022/05/20 01:01:54;;;;;;;;;1.75;1.75;;;;;21.78;47.80;101386.31;5119581;27;45115;-80
2022/05/20 01:04:21;;;;;;;;;1.50;1.25;;;;;21.78;47.84;101386.31;5122820;27;45089;-80
2022/05/20 01:06:47;;;;;;;;;2.00;2.00;;;;;21.67;47.83;101361.34;5113099;27;45447;-80
2022/05/20 01:09:12;;;;;;;;;1.50;1.50;;;;;21.63;47.72;101358.69;5122422;27;45147;-80
2022/05/20 01:11:39;;;;;;;;;2.50;2.50;;;;;21.93;47.82;101397.00;5115330;27;45178;-81
2022/05/20 01:14:06;;;;;;;;;3.00;2.00;;;;;21.89;47.84;101390.75;5110884;27;45196;-80
2022/05/20 01:16:32;;;;;;;;;2.00;2.00;;;;;21.83;47.79;101373.81;5116396;27;45897;-80
2022/05/20 01:19:00;;;;;;;;;2.75;2.25;;;;;21.47;47.83;101319.44;5123777;27;45189;-79
2022/05/20 01:21:26;;;;;;;;;4.50;3.00;;;;;21.67;47.74;101361.34;5126638;27;45150;-80
2022/05/20 01:23:58;;;;;;;;;1.75;1.75;;;;;21.57;47.96;101350.63;5123307;27;45178;-80
2022/05/20 01:26:23;;;;;;;;;3.00;2.00;;;;;21.63;48.35;101356.00;5110680;27;45573;-80
2022/05/20 01:28:48;;;;;;;;;2.00;1.25;;;;;21.52;48.17;101340.84;5125065;27;45315;-79
2022/05/20 01:31:15;;;;;;;;;1.75;1.75;;;;;21.49;48.13;101331.06;5110380;27;45141;-80
2022/05/20 01:33:49;;;;;;;;;2.50;2.50;;;;;21.61;48.18;101356.88;5123904;27;45064;-79
2022/05/20 01:36:19;;;;;;;;;2.00;2.00;;;;;21.51;48.33;101339.94;5109279;27;45460;-80
2022/05/20 01:38:45;;;;;;;;;3.25;2.75;;;;;21.60;48.25;101344.41;5118944;27;45317;-80
2022/05/20 01:41:53;;;;;;;;;2.25;2.00;;;;;21.58;48.36;101335.50;5114192;27;45310;-80
2022/05/20 01:44:30;;;;;;;;;2.75;2.00;;;;;21.40;48.77;101306.97;5079099;27;45432;-80
2022/05/20 01:47:14;;;;;;;;;2.75;2.50;;;;;21.31;48.38;101296.28;5113711;27;45942;-80
2022/05/20 01:50:00;;;;;;;;;2.50;2.00;;;;;21.42;48.36;101312.31;5117004;27;45402;-80
2022/05/20 01:52:56;;;;;;;;;2.00;2.00;;;;;21.51;48.31;101329.25;5122632;27;45222;-80
2022/05/20 01:55:33;;;;;;;;;2.00;2.00;;;;;21.51;48.76;101328.38;5123601;27;45167;-80
2022/05/20 01:58:01;;;;;;;;;2.50;2.50;;;;;21.52;48.90;101330.13;5110989;27;46437;-81
2022/05/20 02:00:30;;;;;;;;;3.00;2.00;;;;;21.32;48.43;101290.94;5098600;27;45771;-80
2022/05/20 02:03:11;;;;;;;;;2.00;2.00;;;;;21.50;48.19;101322.13;5102906;27;44945;-79
2022/05/20 02:05:51;;;;;;;;;2.75;2.00;;;;;21.50;48.31;101316.78;5110827;27;45245;-79
2022/05/20 02:08:24;;;;;;;;;2.50;2.50;;;;;21.30;48.03;101281.13;5113777;27;45271;-80
2022/05/20 02:11:07;;;;;;;;;2.50;2.00;;;;;21.46;48.36;101309.66;5117499;27;45468;-80
2022/05/20 02:13:38;;;;;;;;;2.75;2.75;;;;;21.43;48.56;101309.66;5128094;27;45070;-79
2022/05/20 02:16:17;;;;;;;;;2.00;2.00;;;;;21.41;47.88;101306.09;5111683;27;45357;-79
2022/05/20 02:18:49;;;;;;;;;2.00;2.00;;;;;21.41;48.23;101306.09;5107350;27;46934;-80
2022/05/20 02:21:18;;;;;;;;;2.25;2.25;;;;;21.30;49.03;101283.78;5108947;27;45548;-80
2022/05/20 02:23:50;;;;;;;;;2.00;1.00;;;;;21.35;48.74;101282.03;5116119;27;45124;-80
2022/05/20 02:26:20;;;;;;;;;1.00;1.00;;;;;21.40;48.35;101298.97;5110647;27;45351;-80
2022/05/20 02:28:50;;;;;;;;;1.00;1.00;;;;;21.29;48.29;101288.25;5124774;27;45251;-80
2022/05/20 02:31:30;;;;;;;;;1.25;1.25;;;;;21.29;48.43;101282.91;5110727;27;45191;-80
2022/05/20 02:33:56;;;;;;;;;1.50;1.50;;;;;21.26;48.57;101279.31;5126888;27;45144;-80
2022/05/20 02:36:34;;;;;;;;;2.00;2.00;;;;;21.33;48.72;101291.84;5114995;27;45083;-80
2022/05/20 02:39:01;;;;;;;;;3.50;2.75;;;;;21.35;48.46;101295.41;5111607;27;46798;-80
2022/05/20 02:41:27;;;;;;;;;3.00;2.00;;;;;21.12;48.73;101256.16;5122169;27;46007;-80
2022/05/20 02:43:52;;;;;;;;;1.75;1.75;;;;;21.34;48.44;101293.63;5112364;27;45119;-80
2022/05/20 02:46:17;;;;;;;;;2.00;2.00;;;;;21.20;48.70;101271.31;5111145;27;44996;-80
2022/05/20 02:48:43;;;;;;;;;2.75;2.25;;;;;21.23;48.68;101272.22;5127399;27;45368;-80
2022/05/20 02:51:08;;;;;;;;;1.25;1.00;;;;;21.31;48.65;101286.47;5109033;27;45133;-80
2022/05/20 02:53:34;;;;;;;;;2.00;2.00;;;;;21.01;49.00;101230.34;5122434;27;45122;-80
2022/05/20 02:56:00;;;;;;;;;2.25;2.00;;;;;21.30;48.92;101279.38;5113380;27;45181;-82
2022/05/20 03:04:10;;;;;;;;;2.50;2.00;;;;;21.13;48.98;101259.72;5110808;27;45251;-80
2022/05/20 03:06:42;;;;;;;;;2.00;2.00;;;;;21.15;48.93;101249.94;5109760;27;45557;-82
2022/05/20 03:09:09;;;;;;;;;2.00;2.00;;;;;21.29;48.43;101290.91;5129811;27;45745;-81
2022/05/20 03:11:35;;;;;;;;;2.25;2.25;;;;;21.05;49.03;101240.16;5118880;27;45842;-80
2022/05/20 03:14:01;;;;;;;;;2.75;2.00;;;;;21.13;49.19;101257.97;5127117;27;45153;-81
2022/05/20 03:16:27;;;;;;;;;2.00;2.00;;;;;21.00;49.45;101240.16;5112647;27;45244;-81
2022/05/20 03:18:52;;;;;;;;;2.00;2.00;;;;;21.11;49.45;101257.06;5113572;27;45233;-81
2022/05/20 03:21:18;;;;;;;;;1.75;1.50;;;;;21.05;49.40;101243.69;5132346;27;45039;-81
2022/05/20 03:23:43;;;;;;;;;3.00;2.00;;;;;21.11;49.20;101250.81;5114955;27;45150;-80
2022/05/20 03:26:08;;;;;;;;;1.75;1.75;;;;;21.33;49.62;101292.75;5117638;27;45106;-80
2022/05/20 03:28:34;;;;;;;;;2.50;2.25;;;;;21.24;49.51;101265.09;5126429;27;45341;-80
2022/05/20 03:31:07;;;;;;;;;3.00;3.00;;;;;21.25;49.46;101274.88;5111415;27;45260;-79
2022/05/20 03:33:36;;;;;;;;;2.00;2.00;;;;;21.27;49.80;101275.75;5126458;27;44928;-80
2022/05/20 03:36:02;;;;;;;;;3.25;3.00;;;;;20.99;49.37;101222.34;5113281;27;45178;-80
2022/05/20 03:38:28;;;;;;;;;2.00;2.00;;;;;21.09;49.37;101240.16;5126457;27;46170;-81
2022/05/20 03:40:53;;;;;;;;;4.00;4.00;;;;;21.05;49.48;101240.16;5118746;27;45520;-82
2022/05/20 03:43:18;;;;;;;;;2.75;1.75;;;;;20.94;49.87;101215.22;5112453;27;45047;-81
2022/05/20 03:45:44;;;;;;;;;2.00;2.00;;;;;21.00;49.56;101234.78;5118745;27;45327;-81
2022/05/20 03:48:10;;;;;;;;;1.25;1.25;;;;;20.97;49.71;101236.56;5118909;27;46168;-80
2022/05/20 03:50:35;;;;;;;;;3.00;2.25;;;;;21.08;49.93;101253.47;5123548;27;45467;-82
2022/05/20 03:53:01;;;;;;;;;3.25;3.25;;;;;21.07;50.13;101257.94;5114600;27;45249;-80
2022/05/20 03:55:27;;;;;;;;;2.50;2.50;;;;;20.93;50.41;101230.31;5116510;27;45282;-81
2022/05/20 03:57:53;;;;;;;;;2.50;2.00;;;;;21.02;50.02;101233.00;5092491;27;46983;-82
2022/05/20 04:00:18;;;;;;;;;2.75;2.00;;;;;21.01;50.24;101243.69;5115458;27;45160;-80
2022/05/20 04:02:44;;;;;;;;;3.25;2.00;;;;;20.93;49.93;101221.41;5110768;27;45375;-82
2022/05/20 04:05:09;;;;;;;;;2.25;2.00;;;;;20.98;49.95;101231.22;5110958;27;45044;-79
2022/05/20 04:07:36;;;;;;;;;2.00;2.00;;;;;20.93;50.02;101216.97;5114744;27;45492;-80
2022/05/20 04:10:02;;;;;;;;;2.75;2.75;;;;;21.00;50.15;101236.59;5121742;27;45714;-81
2022/05/20 04:12:32;;;;;;;;;3.00;3.00;;;;;21.04;50.21;101239.25;5123030;27;46319;-81
2022/05/20 04:14:58;;;;;;;;;2.00;2.00;;;;;20.84;50.76;101203.63;5128183;27;45162;-80
2022/05/20 04:17:24;;;;;;;;;2.50;2.50;;;;;21.04;50.47;101233.91;5118070;27;45105;-81
2022/05/20 04:19:50;;;;;;;;;3.00;3.00;;;;;21.11;50.46;101249.03;5120330;27;45268;-80
2022/05/20 04:22:21;;;;;;;;;2.00;2.00;;;;;21.12;50.72;101255.28;5124225;27;45146;-80
2022/05/20 04:24:47;;;;;;;;;2.00;2.00;;;;;20.75;50.40;101187.59;5131852;27;45026;-80
2022/05/20 04:27:12;;;;;;;;;3.25;3.00;;;;;21.17;50.30;101252.59;5131013;27;45677;-81
2022/05/20 04:29:37;;;;;;;;;3.00;3.00;;;;;21.06;50.62;101229.44;5115955;27;45261;-81
2022/05/20 04:32:04;;;;;;;;;5.00;4.00;;;;;21.17;50.17;101250.81;5109808;27;45304;-82
2022/05/20 04:34:29;;;;;;;;;2.00;2.00;;;;;21.13;50.22;101252.63;5111222;27;45093;-81
2022/05/20 04:36:55;;;;;;;;;4.00;4.00;;;;;21.06;50.50;101233.91;5110537;27;45823;-81
2022/05/20 04:39:20;;;;;;;;;3.00;3.00;;;;;21.09;50.58;101236.59;5110164;27;45170;-80
2022/05/20 04:47:19;;;;;;;;;3.25;3.00;;;;;21.38;50.91;101272.22;5109253;27;45399;-82
2022/05/20 04:49:45;;;;;;;;;2.50;2.00;;;;;21.25;50.37;101242.78;5116744;27;45139;-82
2022/05/20 04:52:10;;;;;;;;;3.50;3.00;;;;;21.30;50.54;101257.03;5111925;27;45240;-81
2022/05/20 04:54:51;;;;;;;;;3.00;3.00;;;;;21.33;50.47;101257.09;5126686;27;45222;-80
2022/05/20 04:57:27;;;;;;;;;2.25;2.25;;;;;21.51;50.34;101298.94;5130552;27;45891;-81
2022/05/20 04:59:57;;;;;;;;;3.00;2.25;;;;;21.52;50.74;101279.31;5131333;27;45075;-83
2022/05/20 05:02:23;;;;;;;;;2.25;2.25;;;;;21.40;51.03;101263.31;5128226;27;45320;-81
2022/05/20 05:04:49;;;;;;;;;2.00;2.00;;;;;21.37;50.80;101264.19;5112056;27;45175;-80
2022/05/20 05:07:15;;;;;;;;;2.00;2.00;;;;;21.44;51.42;101284.69;5111607;27;47215;-81
2022/05/20 05:09:42;;;;;;;;;4.00;3.00;;;;;21.30;50.91;101249.94;5112100;27;45072;-80
2022/05/20 05:12:09;;;;;;;;;4.25;3.75;;;;;21.45;50.86;101280.25;5110537;27;45274;-80
2022/05/20 05:14:47;;;;;;;;;2.25;2.25;;;;;21.47;50.86;101279.31;5130483;27;45117;-81
2022/05/20 05:17:15;;;;;;;;;2.00;2.00;;;;;21.48;51.20;101281.13;5129051;27;45215;-84
2022/05/20 05:19:42;;;;;;;;;4.00;4.00;;;;;21.16;50.75;101233.00;5130415;27;45436;-81
2022/05/20 05:22:08;;;;;;;;;3.25;3.25;;;;;21.44;51.07;101282.03;5119459;27;45263;-80
2022/05/20 05:24:36;;;;;;;;;5.00;5.00;;;;;21.43;51.12;101273.97;5130288;27;45070;-82
2022/05/20 05:27:02;;;;;;;;;3.50;3.25;;;;;21.19;50.80;101248.16;5130511;27;45355;-80
2022/05/20 05:29:27;;;;;;;;;3.75;3.00;;;;;21.36;51.43;101283.81;5128360;27;45155;-82
2022/05/20 05:31:53;;;;;;;;;2.75;2.50;;;;;21.22;51.88;101256.16;5118031;27;45049;-80
2022/05/20 05:34:18;;;;;;;;;3.50;3.00;;;;;21.10;51.92;101236.56;5110860;27;45188;-82
2022/05/20 05:36:44;;;;;;;;;2.75;2.75;;;;;21.31;52.01;101262.41;5110843;27;45766;-83
2022/05/20 05:39:09;;;;;;;;;3.00;3.00;;;;;21.10;51.80;101206.28;5096515;27;45319;-80
2022/05/20 05:41:35;;;;;;;;;4.50;4.00;;;;;21.07;51.62;101191.13;5121245;27;45659;-81
2022/05/20 05:44:01;;;;;;;;;2.75;2.25;;;;;20.93;51.83;101166.19;5130734;27;45053;-80
2022/05/20 05:46:26;;;;;;;;;3.00;3.00;;;;;21.12;52.13;101204.47;5128989;27;45543;-81
2022/05/20 05:48:52;;;;;;;;;3.75;3.00;;;;;21.11;51.93;101218.75;5122724;27;46693;-80
2022/05/20 05:51:17;;;;;;;;;3.00;3.00;;;;;20.80;52.73;101169.78;5121202;27;45423;-83
2022/05/20 05:53:42;;;;;;;;;3.50;3.00;;;;;21.17;52.77;101244.56;5118503;27;45552;-80
2022/05/20 05:56:09;;;;;;;;;4.00;4.00;;;;;21.20;53.23;101260.63;5118573;27;45696;-82
2022/05/20 05:58:35;;;;;;;;;4.00;4.00;;;;;21.14;53.88;101261.53;5118770;27;45680;-82
2022/05/20 06:01:01;;;;;;;;;5.25;4.00;;;;;20.90;55.14;101234.81;5110337;27;45308;-81
2022/05/20 06:03:27;;;;;;;;;4.00;4.00;;;;;20.81;55.53;101227.66;5113224;27;45184;-79
2022/05/20 06:05:52;;;;;;;;;4.00;4.00;;;;;20.94;55.26;101264.19;5120359;27;45420;-81
2022/05/20 06:08:18;;;;;;;;;6.00;5.25;;;;;21.04;56.76;101270.44;5110184;27;45100;-80
2022/05/20 06:10:45;;;;;;;;;5.25;5.25;;;;;21.07;57.39;101273.97;5114452;27;45312;-83
2022/05/20 06:13:11;;;;;;;;;3.00;2.50;;;;;21.02;58.51;101275.75;5120316;27;45045;-79
2022/05/20 06:15:37;;;;;;;;;6.25;6.00;;;;;20.67;58.67;101224.09;5116511;27;45349;-80
2022/05/20 06:18:03;;;;;;;;;6.00;5.00;;;;;20.55;59.14;101200.94;5119806;27;45262;-80
2022/05/20 06:20:28;;;;;;;;;6.50;6.00;;;;;20.76;59.15;101233.00;5119868;27;45160;-81
2022/05/20 06:22:56;;;;;;;;;5.00;5.00;;;;;20.53;59.56;101182.22;5119402;27;45092;-79
2022/05/20 06:25:22;;;;;;;;;6.75;5.25;;;;;20.51;59.93;101192.03;5111888;27;45718;-80
2022/05/20 06:27:47;;;;;;;;;6.50;6.00;;;;;20.52;60.54;101184.91;5110279;27;45758;-80
2022/05/20 06:30:17;;;;;;;;;6.00;6.00;;;;;20.32;60.76;101152.81;5083678;27;45630;-80
2022/05/20 06:32:43;;;;;;;;;6.25;6.25;;;;;20.31;60.83;101143.91;5108108;27;45158;-81
2022/05/20 06:40:44;;;;;;;;;5.75;5.00;;;;;20.38;61.28;101120.78;5113073;27;45202;-79
2022/05/20 06:43:20;;;;;;;;;7.00;6.00;;;;;20.15;61.36;101109.19;5110232;27;45306;-80
2022/05/20 06:45:49;;;;;;;;;8.75;7.75;;;;;20.31;60.88;101127.03;5117908;27;46449;-81
2022/05/20 06:48:18;;;;;;;;;6.75;6.00;;;;;20.50;60.96;101152.88;5108409;27;46126;-80
2022/05/20 06:50:44;;;;;;;;;7.00;7.00;;;;;19.76;62.04;101009.56;5105435;27;45395;-79
2022/05/20 06:53:09;;;;;;;;;5.75;5.00;;;;;20.27;61.44;101055.81;5108047;27;45323;-82
2022/05/20 06:55:35;;;;;;;;;8.75;7.75;;;;;20.23;61.40;100998.88;5113705;27;45432;-79
2022/05/20 06:58:02;;;;;;;;;7.00;6.25;;;;;20.10;61.60;100957.97;5124073;27;45576;-80
2022/05/20 07:00:28;;;;;;;;;6.00;6.00;;;;;20.73;61.50;101071.81;5104719;27;45812;-79
2022/05/20 07:02:54;;;;;;;;;7.75;7.00;;;;;20.73;62.00;101043.31;5109219;27;45151;-79
2022/05/20 07:05:19;;;;;;;;;6.00;6.00;;;;;20.51;61.61;100965.06;5113195;27;45749;-79
2022/05/20 07:07:45;;;;;;;;;7.00;6.75;;;;;20.63;61.35;100960.56;5119510;27;45187;-80
2022/05/20 07:10:12;;;;;;;;;8.50;8.50;;;;;20.97;61.67;101014.75;5119305;27;45210;-79
2022/05/20 07:12:38;;;;;;;;;7.75;6.00;;;;;20.90;61.05;100987.19;5116889;27;45197;-78
2022/05/20 07:15:05;;;;;;;;;10.00;8.00;;;;;20.86;61.39;100978.28;5119056;27;45251;-78
2022/05/20 07:17:35;;;;;;;;;7.25;6.25;;;;;20.86;61.35;100972.94;5108799;27;45263;-83
2022/05/20 07:20:00;;;;;;;;;5.00;5.00;;;;;20.92;61.72;100996.06;5112567;27;45490;-80
2022/05/20 07:22:27;;;;;;;;;7.25;7.00;;;;;21.01;62.25;101013.88;5128578;27;45035;-81
2022/05/20 07:24:52;;;;;;;;;7.25;7.25;;;;;20.72;62.10;100971.22;5121182;27;45653;-83
2022/05/20 07:27:18;;;;;;;;;8.25;8.25;;;;;21.08;61.70;101040.56;5128374;27;45397;-81
2022/05/20 07:29:43;;;;;;;;;8.50;6.75;;;;;20.55;61.78;100933.91;5124921;27;45465;-80
2022/05/20 07:32:09;;;;;;;;;4.00;3.00;;;;;21.37;61.94;101047.59;5122274;27;45289;-81
2022/05/20 07:34:35;;;;;;;;;6.50;6.50;;;;;20.89;62.06;100940.00;5115857;27;46304;-80
2022/05/20 07:37:00;;;;;;;;;11.50;10.00;;;;;21.27;61.47;100998.59;5112574;27;45083;-79
2022/05/20 07:39:26;;;;;;;;;10.00;9.25;;;;;21.24;61.99;100997.75;5120819;27;45064;-79
2022/05/20 07:41:52;;;;;;;;;7.25;6.50;;;;;21.49;61.55;101102.81;5118158;27;45144;-80
2022/05/20 07:44:18;;;;;;;;;8.25;7.00;;;;;20.94;61.97;101005.00;5110455;27;45823;-79
2022/05/20 07:46:44;;;;;;;;;9.25;9.00;;;;;21.07;63.34;101049.47;5111594;27;45071;-79
2022/05/20 07:49:09;;;;;;;;;7.75;7.75;;;;;21.19;62.99;101109.16;5110712;27;44992;-79
2022/05/20 07:51:39;;;;;;;;;8.50;7.75;;;;;21.18;63.33;101126.06;5107386;27;45174;-81
2022/05/20 07:54:14;;;;;;;;;9.00;8.50;;;;;21.03;63.17;101087.81;5107738;27;45488;-80
2022/05/20 07:56:44;;;;;;;;;13.50;10.00;;;;;20.92;63.52;101081.59;5113196;27;45710;-81
2022/05/20 07:59:32;;;;;;;;;10.25;8.75;;;;;21.00;63.84;101085.13;5114650;27;45105;-81
2022/05/20 08:02:01;;;;;;;;;10.00;10.00;;;;;20.97;64.73;101057.53;5101389;27;45510;-81
2022/05/20 08:07:14;;;;;;;;;8.50;7.50;;;;;21.37;63.94;101101.06;5117353;27;45647;-83
2022/05/20 08:09:40;;;;;;;;;12.75;12.00;;;;;21.47;64.04;101104.59;5114055;27;45401;-83
2022/05/20 08:12:06;;;;;;;;;10.00;10.00;;;;;21.18;63.77;101043.19;5107011;27;45222;-82
2022/05/20 08:14:32;;;;;;;;;10.00;9.00;;;;;21.35;63.99;101069.00;5108958;27;46390;-82
2022/05/20 08:16:59;;;;;;;;;10.25;9.50;;;;;21.47;64.32;101096.56;5104327;27;45263;-82
2022/05/20 08:19:25;;;;;;;;;8.25;8.00;;;;;21.25;64.79;101036.94;5104783;27;45398;-82
2022/05/20 08:21:50;;;;;;;;;11.00;10.25;;;;;21.29;64.72;101039.59;5103878;27;45418;-82
2022/05/20 08:24:16;;;;;;;;;13.50;12.50;;;;;21.48;64.44;101079.66;5109057;27;45194;-83
2022/05/20 08:26:41;;;;;;;;;9.50;8.50;;;;;21.47;64.43;101072.50;5107986;27;45394;-81
2022/05/20 08:29:07;;;;;;;;;13.00;11.00;;;;;21.71;64.67;101092.88;5109609;27;45671;-82
2022/05/20 08:31:33;;;;;;;;;11.50;10.75;;;;;21.69;64.68;101060.81;5114130;27;45655;-84
2022/05/20 08:33:59;;;;;;;;;10.25;10.00;;;;;21.95;64.19;101090.06;5120259;27;46800;-85
2022/05/20 08:36:25;;;;;;;;;8.50;8.50;;;;;21.84;63.86;101097.28;5127280;27;45521;-83
2022/05/20 08:38:50;;;;;;;;;11.25;11.00;;;;;21.62;63.68;101121.50;5116397;27;45321;-82
2022/05/20 08:41:25;;;;;;;;;13.75;10.75;;;;;21.72;64.21;101182.94;5107276;27;45207;-81
2022/05/20 08:43:50;;;;;;;;;11.50;11.00;;;;;21.48;63.77;101190.19;5110027;27;45984;-82
2022/05/20 08:46:19;;;;;;;;;13.25;13.25;;;;;21.34;64.10;101233.00;5107682;27;45037;-83
2022/05/20 08:48:47;;;;;;;;;13.00;12.00;;;;;21.25;65.25;101192.00;5118184;27;45140;-82
2022/05/20 08:51:12;;;;;;;;;14.50;11.50;;;;;21.31;65.63;101114.47;5108395;27;45526;-82
2022/05/20 08:53:41;;;;;;;;;12.00;10.00;;;;;21.70;65.91;101100.03;5107913;27;45117;-83
2022/05/20 08:56:09;;;;;;;;;12.50;11.50;;;;;21.70;65.51;101035.81;5103186;27;45584;-84
2022/05/20 08:58:37;;;;;;;;;11.00;10.00;;;;;22.06;65.60;101077.47;5090040;27;45168;-82
2022/05/20 09:01:03;;;;;;;;;11.75;11.25;;;;;22.46;64.64;101095.94;5104182;27;45401;-82
2022/05/20 09:03:29;;;;;;;;;15.25;13.00;;;;;22.30;63.98;101030.03;5117435;27;45707;-83
2022/05/20 09:06:11;;;;;;;;;15.50;13.50;;;;;22.87;63.02;101102.72;5121805;27;45111;-83
2022/05/20 09:08:36;;;;;;;;;14.00;14.00;;;;;22.78;62.43;101070.66;5118778;27;45993;-82
2022/05/20 09:11:05;;;;;;;;;13.75;13.25;;;;;23.11;62.79;101112.34;5117206;27;45564;-83
2022/05/20 09:16:30;;;;;;;;;14.25;13.75;;;;;23.30;62.27;101087.09;5104419;27;45566;-82
2022/05/20 09:19:10;;;;;;;;;13.00;13.00;;;;;23.35;61.84;101093.28;5100220;27;45430;-81
2022/05/20 09:21:39;;;;;;;;;13.75;13.75;;;;;22.73;61.73;100989.41;5090385;27;45414;-82
2022/05/20 09:24:14;;;;;;;;;16.25;14.25;;;;;23.43;61.51;101086.00;5108141;27;46282;-83
2022/05/20 09:26:46;;;;;;;;;14.00;14.00;;;;;23.08;61.40;100981.84;5102690;27;45432;-83
2022/05/20 09:29:21;;;;;;;;;14.75;14.75;;;;;23.11;62.13;100956.81;5095041;27;45374;-81
2022/05/20 09:31:48;;;;;;;;;13.75;13.00;;;;;23.87;61.06;101084.53;5125174;27;45403;-79
2022/05/20 09:34:23;;;;;;;;;14.50;13.50;;;;;23.76;61.14;101099.03;5103913;27;46125;-80
2022/05/20 09:37:00;;;;;;;;;14.25;14.00;;;;;23.35;60.68;101111.13;5103675;27;45490;-80
2022/05/20 09:39:45;;;;;;;;;13.00;13.00;;;;;23.18;61.54;101160.50;5120763;27;45367;-80
2022/05/20 09:42:17;;;;;;;;;16.25;15.25;;;;;23.01;61.86;101165.16;5121520;27;45386;-79
2022/05/20 09:44:47;;;;;;;;;15.75;15.25;;;;;22.95;62.58;101071.38;5099975;27;45964;-80
2022/05/20 09:47:44;;;;;;;;;14.00;14.00;;;;;23.43;63.00;100999.25;5106295;27;45398;-78
2022/05/20 09:50:31;;;;;;;;;18.25;15.75;;;;;23.82;62.53;100986.19;5106368;27;45295;-79
2022/05/20 09:53:00;;;;;;;;;20.00;18.00;;;;;24.00;62.92;101011.88;5112974;27;45353;-81
2022/05/20 09:55:29;;;;;;;;;19.00;17.50;;;;;23.93;62.66;101019.13;5116126;27;47517;-79
2022/05/20 09:58:06;;;;;;;;;16.75;15.50;;;;;24.03;61.82;100999.25;5098463;27;45293;-79
2022/05/20 10:00:32;;;;;;;;;16.25;16.25;;;;;24.27;61.20;100987.19;5111753;27;45630;-81
2022/05/20 10:03:31;;;;;;;;;16.00;16.00;;;;;24.56;60.95;101016.25;5111811;27;45315;-81
2022/05/20 10:06:04;;;;;;;;;20.75;19.00;;;;;24.47;60.41;101000.31;5125026;27;45619;-79
2022/05/20 10:08:41;;;;;;;;;23.00;21.75;;;;;24.25;60.85;100986.34;5118990;27;45883;-81
2022/05/20 10:11:13;;;;;;;;;19.25;18.25;;;;;24.39;61.26;101030.00;5121460;27;45458;-79
2022/05/20 10:14:06;;;;;;;;;16.75;16.25;;;;;24.30;61.57;101032.81;5108619;27;45068;-79
2022/05/20 10:16:44;;;;;;;;;16.00;16.00;;;;;24.03;61.62;101025.22;5114328;27;45268;-80
2022/05/20 10:19:31;;;;;;;;;18.25;18.25;;;;;24.14;61.90;101034.91;5114267;27;45608;-79
2022/05/20 10:22:10;;;;;;;;;22.25;21.25;;;;;24.15;62.64;101023.22;5112543;27;45121;-80
2022/05/20 10:25:04;;;;;;;;;16.75;16.25;;;;;23.79;62.30;100935.22;5132776;27;45240;-81
2022/05/20 10:27:53;;;;;;;;;18.25;18.25;;;;;24.56;61.04;101037.75;5126608;27;45528;-80
2022/05/20 10:33:12;;;;;;;;;18.25;17.25;;;;;24.77;61.14;100982.69;5123789;27;45568;-82
2022/05/20 10:36:05;;;;;;;;;18.00;18.00;;;;;25.20;60.10;101028.44;5121385;27;45213;-82
2022/05/20 10:38:37;;;;;;;;;17.50;16.25;;;;;25.41;60.51;101015.44;5122634;27;45800;-82
2022/05/20 10:41:39;;;;;;;;;22.00;20.50;;;;;25.58;58.66;101001.63;5116988;27;45399;-81
2022/05/20 10:50:20;;;;;;;;;19.50;19.50;;;;;26.06;58.45;100986.13;5115021;27;45017;-82
2022/05/20 10:53:19;;;;;;;;;21.75;21.50;;;;;26.12;57.35;100972.47;5068927;27;45473;-82
2022/05/20 10:55:53;;;;;;;;;20.00;20.00;;;;;26.11;57.58;100983.31;5084001;27;45486;-84
2022/05/20 10:58:51;;;;;;;;;19.00;19.00;;;;;26.08;57.75;100997.72;5118914;27;45315;-82
2022/05/20 11:01:40;;;;;;;;;21.25;20.50;;;;;26.01;57.44;100970.97;5123622;27;45916;-84
2022/05/20 11:04:35;;;;;;;;;25.00;24.00;;;;;26.13;56.97;101006.56;5122930;27;45320;-83
2022/05/20 11:07:28;;;;;;;;;25.50;22.00;;;;;26.09;58.02;101015.66;5131177;27;45283;-83
2022/05/20 11:10:07;;;;;;;;;24.50;23.50;;;;;25.94;57.78;100978.31;5130010;27;45139;-84
2022/05/20 11:13:01;;;;;;;;;18.75;18.25;;;;;26.26;57.99;101027.84;5116121;27;45480;-84
2022/05/20 11:15:41;;;;;;;;;24.25;22.50;;;;;26.19;57.70;101019.88;5113059;27;45596;-83
2022/05/20 11:18:18;;;;;;;;;19.25;18.75;;;;;26.51;58.22;101053.25;5109580;27;45393;-83
2022/05/20 11:20:53;;;;;;;;;17.25;16.75;;;;;26.69;57.49;101046.47;5111186;27;45380;-83
2022/05/20 11:23:47;;;;;;;;;16.50;15.50;;;;;26.74;57.70;101021.13;5114186;27;45565;-83
2022/05/20 11:26:41;;;;;;;;;16.25;16.25;;;;;27.05;57.71;101049.97;5113148;27;45587;-83
2022/05/20 11:29:17;;;;;;;;;17.50;17.00;;;;;26.79;56.65;100996.72;5102719;27;45361;-83
2022/05/20 11:31:52;;;;;;;;;17.25;17.00;;;;;27.22;57.40;101062.97;5124039;27;45031;-83
2022/05/20 11:34:42;;;;;;;;;16.00;15.00;;;;;27.32;57.05;101050.09;5118305;27;46076;-83
2022/05/20 11:37:33;;;;;;;;;14.75;14.75;;;;;27.34;57.69;101042.81;5107492;27;45195;-84
2022/05/20 11:40:17;;;;;;;;;15.75;15.50;;;;;27.39;57.26;101035.47;5084714;27;45534;-83
2022/05/20 11:43:22;;;;;;;;;14.25;14.25;;;;;27.30;55.72;101020.47;5104551;27;45377;-84
2022/05/20 11:46:05;;;;;;;;;15.25;14.25;;;;;27.50;55.73;101054.97;5115360;27;45700;-81
2022/05/20 11:49:01;;;;;;;;;16.75;16.25;;;;;27.41;55.73;101048.00;5098280;27;45851;-81
2022/05/20 11:51:51;;;;;;;;;13.25;13.25;;;;;27.67;54.58;101041.78;5092152;27;45561;-84
2022/05/20 11:54:39;;;;;;;;;15.50;15.50;;;;;27.84;54.04;101032.31;5111846;27;45448;-81
2022/05/20 11:57:08;;;;;;;;;13.25;13.25;;;;;27.74;53.21;101005.59;5129862;27;45371;-81
2022/05/20 11:59:42;;;;;;;;;12.75;12.75;;;;;27.67;52.54;100957.19;5114864;27;45433;-83
2022/05/20 12:02:11;;;;;;;;;12.00;12.00;;;;;28.25;51.32;101015.59;5114626;27;45618;-81
2022/05/20 12:04:40;;;;;;;;;13.00;12.75;;;;;28.12;50.25;101005.25;5105803;27;45020;-85
2022/05/20 12:07:17;;;;;;;;;14.25;11.25;;;;;28.27;50.39;100999.31;5125609;27;45746;-83
2022/05/20 12:09:48;;;;;;;;;13.50;13.00;;;;;28.47;50.36;101017.56;5129602;27;45357;-82